Terminal Aerodrome Forecast
Issued by NWS

Home | Current Version | Previous Version | Graphics & Text | Print | Product List | Glossary On
Versions: 1 2 3 4 5 6 7 8 9 10 11 12 13 14 15 16 17
046
FTUS43 KBIS 212132 AAC
TAFDIK
TAF AMD
KDIK 212132Z 2122/2218 31015G23KT P6SM VCSH BKN090
      TEMPO 2122/2124 32019G30KT P6SM -SHRA BKN080
     FM220300 32008KT P6SM VCSH BKN070
     FM221200 31010KT P6SM BKN040=

USA.gov is the U.S. government's official web portal to all federal, state and local government web resources and services.